sensor_id;sensor_type;location;lat;lon;timestamp;pressure;altitude;pressure_sealevel;temperature;humidity
28626;BME280;18905;42.668;23.364;2023-04-25T00:01:40;94306.56;;;11.79;100.00
28626;BME280;18905;42.668;23.364;2023-04-25T00:04:06;94255.03;;;11.60;100.00
28626;BME280;18905;42.668;23.364;2023-04-25T00:06:32;94328.47;;;12.02;100.00
28626;BME280;18905;42.668;23.364;2023-04-25T00:09:02;94264.22;;;11.71;100.00
28626;BME280;18905;42.668;23.364;2023-04-25T00:11:28;94233.06;;;11.49;100.00
28626;BME280;18905;42.668;23.364;2023-04-25T00:13:56;94349.94;;;11.82;100.00
28626;BME280;18905;42.668;23.364;2023-04-25T00:16:22;94200.03;;;10.89;100.00
28626;BME280;18905;42.668;23.364;2023-04-25T00:18:49;94207.03;;;10.78;100.00
28626;BME280;18905;42.668;23.364;2023-04-25T00:21:19;94338.84;;;11.48;100.00
28626;BME280;18905;42.668;23.364;2023-04-25T00:23:45;94182.97;;;10.37;100.00
28626;BME280;18905;42.668;23.364;2023-04-25T00:26:11;94206.69;;;10.55;100.00
28626;BME280;18905;42.668;23.364;2023-04-25T00:28:37;94212.88;;;10.44;100.00
28626;BME280;18905;42.668;23.364;2023-04-25T00:31:05;94200.75;;;10.50;100.00
28626;BME280;18905;42.668;23.364;2023-04-25T00:33:31;94324.66;;;11.39;100.00
28626;BME280;18905;42.668;23.364;2023-04-25T00:35:57;94187.47;;;10.69;100.00
28626;BME280;18905;42.668;23.364;2023-04-25T00:38:23;94256.03;;;11.16;100.00
28626;BME280;18905;42.668;23.364;2023-04-25T00:40:48;94265.50;;;11.10;100.00
28626;BME280;18905;42.668;23.364;2023-04-25T00:43:14;94217.69;;;10.98;100.00
28626;BME280;18905;42.668;23.364;2023-04-25T00:45:40;94279.44;;;11.24;100.00
28626;BME280;18905;42.668;23.364;2023-04-25T00:48:06;94324.34;;;11.40;100.00
28626;BME280;18905;42.668;23.364;2023-04-25T00:50:35;94229.06;;;10.92;100.00
28626;BME280;18905;42.668;23.364;2023-04-25T00:53:01;94182.50;;;10.47;100.00
28626;BME280;18905;42.668;23.364;2023-04-25T00:55:28;94261.84;;;11.18;100.00
28626;BME280;18905;42.668;23.364;2023-04-25T00:57:58;94312.25;;;11.62;100.00
28626;BME280;18905;42.668;23.364;2023-04-25T01:00:23;94166.31;;;10.59;100.00
28626;BME280;18905;42.668;23.364;2023-04-25T01:02:49;94313.75;;;11.35;100.00
28626;BME280;18905;42.668;23.364;2023-04-25T01:05:15;94247.81;;;11.00;100.00
28626;BME280;18905;42.668;23.364;2023-04-25T01:07:41;94204.50;;;10.97;100.00
28626;BME280;18905;42.668;23.364;2023-04-25T01:10:08;94176.47;;;11.01;100.00
28626;BME280;18905;42.668;23.364;2023-04-25T01:12:34;94154.09;;;10.89;100.00
28626;BME280;18905;42.668;23.364;2023-04-25T01:15:00;94258.31;;;11.41;100.00
28626;BME280;18905;42.668;23.364;2023-04-25T01:17:27;94191.09;;;11.12;100.00
28626;BME280;18905;42.668;23.364;2023-04-25T01:19:53;94169.09;;;10.74;100.00
28626;BME280;18905;42.668;23.364;2023-04-25T01:22:19;94128.88;;;10.45;100.00
28626;BME280;18905;42.668;23.364;2023-04-25T01:24:46;94176.44;;;10.50;100.00
28626;BME280;18905;42.668;23.364;2023-04-25T01:27:12;94147.69;;;10.18;100.00
28626;BME280;18905;42.668;23.364;2023-04-25T01:29:38;94164.19;;;10.28;100.00
28626;BME280;18905;42.668;23.364;2023-04-25T01:32:05;94267.19;;;11.02;100.00
28626;BME280;18905;42.668;23.364;2023-04-25T01:34:31;94127.16;;;9.93;100.00
28626;BME280;18905;42.668;23.364;2023-04-25T01:36:59;94159.78;;;10.00;100.00
28626;BME280;18905;42.668;23.364;2023-04-25T01:39:25;94168.84;;;9.95;100.00
28626;BME280;18905;42.668;23.364;2023-04-25T01:41:51;94160.19;;;9.90;100.00
28626;BME280;18905;42.668;23.364;2023-04-25T01:44:17;94239.63;;;10.49;100.00
28626;BME280;18905;42.668;23.364;2023-04-25T01:46:43;94205.22;;;10.22;100.00
28626;BME280;18905;42.668;23.364;2023-04-25T01:49:09;94285.66;;;10.88;100.00
28626;BME280;18905;42.668;23.364;2023-04-25T01:51:35;94188.25;;;10.21;100.00
28626;BME280;18905;42.668;23.364;2023-04-25T01:54:01;94153.41;;;10.16;100.00
28626;BME280;18905;42.668;23.364;2023-04-25T01:56:30;94150.47;;;10.09;100.00
28626;BME280;18905;42.668;23.364;2023-04-25T01:58:59;94179.94;;;10.38;100.00
28626;BME280;18905;42.668;23.364;2023-04-25T02:01:25;94219.16;;;10.72;100.00
28626;BME280;18905;42.668;23.364;2023-04-25T02:03:51;94183.50;;;10.42;100.00
28626;BME280;18905;42.668;23.364;2023-04-25T02:06:16;94158.22;;;10.47;100.00
28626;BME280;18905;42.668;23.364;2023-04-25T02:08:42;94165.72;;;10.65;100.00
28626;BME280;18905;42.668;23.364;2023-04-25T02:11:08;94192.38;;;10.91;100.00
28626;BME280;18905;42.668;23.364;2023-04-25T02:13:33;94135.69;;;10.67;100.00
28626;BME280;18905;42.668;23.364;2023-04-25T02:15:59;94235.91;;;11.41;100.00
28626;BME280;18905;42.668;23.364;2023-04-25T02:18:25;94101.78;;;10.42;100.00
28626;BME280;18905;42.668;23.364;2023-04-25T02:20:52;94186.25;;;11.06;100.00
28626;BME280;18905;42.668;23.364;2023-04-25T02:23:18;94252.56;;;11.55;100.00
28626;BME280;18905;42.668;23.364;2023-04-25T02:25:44;94259.72;;;11.75;100.00
28626;BME280;18905;42.668;23.364;2023-04-25T02:28:10;94131.72;;;10.88;100.00
28626;BME280;18905;42.668;23.364;2023-04-25T02:30:36;94125.28;;;10.93;100.00
28626;BME280;18905;42.668;23.364;2023-04-25T02:33:02;94128.22;;;11.00;100.00
28626;BME280;18905;42.668;23.364;2023-04-25T02:35:27;94119.41;;;11.03;100.00
28626;BME280;18905;42.668;23.364;2023-04-25T02:37:54;94206.81;;;11.62;100.00
28626;BME280;18905;42.668;23.364;2023-04-25T02:40:20;94248.94;;;11.91;100.00
28626;BME280;18905;42.668;23.364;2023-04-25T02:42:46;94206.38;;;11.60;100.00
28626;BME280;18905;42.668;23.364;2023-04-25T02:45:12;94240.03;;;11.90;100.00
28626;BME280;18905;42.668;23.364;2023-04-25T02:47:37;94101.88;;;10.97;100.00
28626;BME280;18905;42.668;23.364;2023-04-25T02:50:04;94122.75;;;11.12;100.00
28626;BME280;18905;42.668;23.364;2023-04-25T02:52:30;94153.25;;;11.40;100.00
28626;BME280;18905;42.668;23.364;2023-04-25T02:54:55;94133.69;;;11.31;100.00
28626;BME280;18905;42.668;23.364;2023-04-25T02:57:21;94133.91;;;11.38;100.00
28626;BME280;18905;42.668;23.364;2023-04-25T02:59:47;94119.03;;;11.16;100.00
28626;BME280;18905;42.668;23.364;2023-04-25T03:02:13;94129.72;;;11.13;100.00
28626;BME280;18905;42.668;23.364;2023-04-25T03:04:39;94081.88;;;10.86;100.00
28626;BME280;18905;42.668;23.364;2023-04-25T03:07:05;94149.03;;;11.27;100.00
28626;BME280;18905;42.668;23.364;2023-04-25T03:09:31;94232.03;;;11.66;100.00
28626;BME280;18905;42.668;23.364;2023-04-25T03:11:57;94071.84;;;10.59;100.00
28626;BME280;18905;42.668;23.364;2023-04-25T03:14:22;94096.31;;;10.78;100.00
28626;BME280;18905;42.668;23.364;2023-04-25T03:16:48;94134.84;;;11.02;100.00
28626;BME280;18905;42.668;23.364;2023-04-25T03:19:14;94095.91;;;10.64;100.00
28626;BME280;18905;42.668;23.364;2023-04-25T03:21:42;94215.97;;;10.94;100.00
28626;BME280;18905;42.668;23.364;2023-04-25T03:24:08;94128.78;;;10.42;100.00
28626;BME280;18905;42.668;23.364;2023-04-25T03:31:44;94233.09;;;10.98;100.00
28626;BME280;18905;42.668;23.364;2023-04-25T03:34:10;94121.81;;;10.17;100.00
28626;BME280;18905;42.668;23.364;2023-04-25T03:36:39;94120.44;;;9.99;100.00
28626;BME280;18905;42.668;23.364;2023-04-25T03:39:05;94132.28;;;10.30;100.00
28626;BME280;18905;42.668;23.364;2023-04-25T03:41:32;94095.84;;;10.12;100.00
28626;BME280;18905;42.668;23.364;2023-04-25T03:43:57;94123.03;;;10.19;100.00
28626;BME280;18905;42.668;23.364;2023-04-25T03:46:23;94113.28;;;10.15;100.00
28626;BME280;18905;42.668;23.364;2023-04-25T03:48:49;94104.94;;;10.08;100.00
28626;BME280;18905;42.668;23.364;2023-04-25T03:51:15;94149.66;;;10.45;100.00
28626;BME280;18905;42.668;23.364;2023-04-25T03:53:41;94144.72;;;10.47;100.00
28626;BME280;18905;42.668;23.364;2023-04-25T03:56:07;94233.22;;;12.55;100.00
28626;BME280;18905;42.668;23.364;2023-04-25T03:58:33;94089.78;;;13.50;100.00
28626;BME280;18905;42.668;23.364;2023-04-25T04:00:59;94123.75;;;15.05;100.00
28626;BME280;18905;42.668;23.364;2023-04-25T04:03:24;94080.09;;;16.94;100.00
28626;BME280;18905;42.668;23.364;2023-04-25T04:05:50;94151.28;;;18.60;100.00
28626;BME280;18905;42.668;23.364;2023-04-25T04:08:15;94185.03;;;17.82;100.00
28626;BME280;18905;42.668;23.364;2023-04-25T04:10:40;94156.09;;;17.60;100.00
28626;BME280;18905;42.668;23.364;2023-04-25T04:13:06;94166.78;;;18.04;100.00
28626;BME280;18905;42.668;23.364;2023-04-25T04:15:31;94223.81;;;18.19;100.00
28626;BME280;18905;42.668;23.364;2023-04-25T04:17:58;94213.31;;;17.43;100.00
28626;BME280;18905;42.668;23.364;2023-04-25T04:20:28;94206.50;;;15.96;100.00
28626;BME280;18905;42.668;23.364;2023-04-25T04:22:54;94124.28;;;14.62;100.00
28626;BME280;18905;42.668;23.364;2023-04-25T04:25:19;94116.31;;;13.22;100.00
28626;BME280;18905;42.668;23.364;2023-04-25T04:27:45;94129.03;;;12.49;100.00
28626;BME280;18905;42.668;23.364;2023-04-25T04:30:11;94227.84;;;13.58;100.00
28626;BME280;18905;42.668;23.364;2023-04-25T04:32:37;94168.78;;;12.95;100.00
28626;BME280;18905;42.668;23.364;2023-04-25T04:35:03;94162.56;;;12.94;100.00
28626;BME280;18905;42.668;23.364;2023-04-25T04:37:30;94226.59;;;13.18;100.00
28626;BME280;18905;42.668;23.364;2023-04-25T04:39:55;94228.91;;;12.23;100.00
28626;BME280;18905;42.668;23.364;2023-04-25T04:42:21;94223.75;;;11.74;100.00
28626;BME280;18905;42.668;23.364;2023-04-25T04:44:47;94105.44;;;10.73;100.00
28626;BME280;18905;42.668;23.364;2023-04-25T04:47:13;94220.19;;;11.58;100.00
28626;BME280;18905;42.668;23.364;2023-04-25T04:49:39;94143.44;;;11.20;100.00
28626;BME280;18905;42.668;23.364;2023-04-25T04:52:05;94117.78;;;10.86;100.00
28626;BME280;18905;42.668;23.364;2023-04-25T04:54:31;94136.19;;;10.96;100.00
28626;BME280;18905;42.668;23.364;2023-04-25T04:56:57;94193.75;;;11.52;100.00
28626;BME280;18905;42.668;23.364;2023-04-25T04:59:22;94129.88;;;11.04;100.00
28626;BME280;18905;42.668;23.364;2023-04-25T05:01:48;94158.44;;;11.05;100.00
28626;BME280;18905;42.668;23.364;2023-04-25T05:04:14;94241.13;;;11.34;100.00
28626;BME280;18905;42.668;23.364;2023-04-25T05:06:40;94182.19;;;11.12;100.00
28626;BME280;18905;42.668;23.364;2023-04-25T05:09:06;94257.75;;;11.48;100.00
28626;BME280;18905;42.668;23.364;2023-04-25T05:11:32;94121.69;;;10.89;100.00
28626;BME280;18905;42.668;23.364;2023-04-25T05:13:58;94160.41;;;10.93;100.00
28626;BME280;18905;42.668;23.364;2023-04-25T05:16:26;94261.50;;;11.43;100.00
28626;BME280;18905;42.668;23.364;2023-04-25T05:18:52;94102.78;;;10.49;100.00
28626;BME280;18905;42.668;23.364;2023-04-25T05:21:18;94235.78;;;11.49;100.00
28626;BME280;18905;42.668;23.364;2023-04-25T05:23:44;94155.97;;;10.61;100.00
28626;BME280;18905;42.668;23.364;2023-04-25T05:26:13;94216.06;;;11.21;100.00
28626;BME280;18905;42.668;23.364;2023-04-25T05:28:42;94096.50;;;10.45;100.00
28626;BME280;18905;42.668;23.364;2023-04-25T05:31:11;94188.31;;;10.97;100.00
28626;BME280;18905;42.668;23.364;2023-04-25T05:33:38;94253.22;;;11.52;100.00
28626;BME280;18905;42.668;23.364;2023-04-25T05:36:03;94102.88;;;10.53;100.00
28626;BME280;18905;42.668;23.364;2023-04-25T05:38:30;94224.47;;;11.32;100.00
28626;BME280;18905;42.668;23.364;2023-04-25T05:40:55;94231.50;;;11.48;100.00
28626;BME280;18905;42.668;23.364;2023-04-25T05:43:21;94128.97;;;10.61;100.00
28626;BME280;18905;42.668;23.364;2023-04-25T05:45:47;94165.72;;;10.89;100.00
28626;BME280;18905;42.668;23.364;2023-04-25T05:48:13;94123.88;;;10.71;100.00
28626;BME280;18905;42.668;23.364;2023-04-25T05:50:39;94167.72;;;11.32;100.00
28626;BME280;18905;42.668;23.364;2023-04-25T05:53:08;94177.97;;;11.26;100.00
28626;BME280;18905;42.668;23.364;2023-04-25T05:55:34;94135.59;;;11.03;100.00
28626;BME280;18905;42.668;23.364;2023-04-25T05:58:00;94276.72;;;12.03;100.00
28626;BME280;18905;42.668;23.364;2023-04-25T06:00:26;94267.81;;;12.02;100.00
28626;BME280;18905;42.668;23.364;2023-04-25T06:02:54;94169.31;;;11.21;100.00
28626;BME280;18905;42.668;23.364;2023-04-25T06:05:20;94136.41;;;11.31;100.00
28626;BME280;18905;42.668;23.364;2023-04-25T06:07:46;94127.88;;;11.29;100.00
28626;BME280;18905;42.668;23.364;2023-04-25T06:10:12;94167.09;;;11.78;100.00
28626;BME280;18905;42.668;23.364;2023-04-25T06:12:37;94224.56;;;12.49;100.00
28626;BME280;18905;42.668;23.364;2023-04-25T06:15:04;94221.56;;;12.70;100.00
28626;BME280;18905;42.668;23.364;2023-04-25T06:17:30;94210.66;;;12.20;100.00
28626;BME280;18905;42.668;23.364;2023-04-25T06:19:56;94269.72;;;12.76;100.00
28626;BME280;18905;42.668;23.364;2023-04-25T06:22:21;94209.25;;;12.72;100.00
28626;BME280;18905;42.668;23.364;2023-04-25T06:24:50;94208.63;;;12.94;100.00
28626;BME280;18905;42.668;23.364;2023-04-25T06:27:16;94157.31;;;12.51;100.00
28626;BME280;18905;42.668;23.364;2023-04-25T06:29:41;94182.38;;;12.64;100.00
28626;BME280;18905;42.668;23.364;2023-04-25T06:32:07;94172.50;;;12.56;100.00
28626;BME280;18905;42.668;23.364;2023-04-25T06:34:33;94139.69;;;12.42;100.00
28626;BME280;18905;42.668;23.364;2023-04-25T06:36:59;94247.25;;;13.07;100.00
28626;BME280;18905;42.668;23.364;2023-04-25T06:39:24;94133.06;;;12.74;100.00
28626;BME280;18905;42.668;23.364;2023-04-25T06:41:53;94173.91;;;13.53;100.00
28626;BME280;18905;42.668;23.364;2023-04-25T06:44:18;94129.91;;;13.63;100.00
28626;BME280;18905;42.668;23.364;2023-04-25T06:46:44;94155.78;;;13.57;100.00
28626;BME280;18905;42.668;23.364;2023-04-25T06:49:10;94192.16;;;14.17;100.00
28626;BME280;18905;42.668;23.364;2023-04-25T06:51:35;94188.59;;;14.32;100.00
28626;BME280;18905;42.668;23.364;2023-04-25T06:54:01;94223.16;;;13.93;100.00
28626;BME280;18905;42.668;23.364;2023-04-25T06:56:29;94273.19;;;13.96;100.00
28626;BME280;18905;42.668;23.364;2023-04-25T06:58:56;94128.38;;;13.24;100.00
28626;BME280;18905;42.668;23.364;2023-04-25T07:01:21;94141.47;;;13.60;100.00
28626;BME280;18905;42.668;23.364;2023-04-25T07:03:47;94101.13;;;13.17;100.00
28626;BME280;18905;42.668;23.364;2023-04-25T07:06:13;94191.31;;;13.71;100.00
28626;BME280;18905;42.668;23.364;2023-04-25T07:08:38;94143.44;;;13.82;100.00
28626;BME280;18905;42.668;23.364;2023-04-25T07:11:04;94169.88;;;14.49;100.00
28626;BME280;18905;42.668;23.364;2023-04-25T07:13:30;94175.34;;;14.53;100.00
28626;BME280;18905;42.668;23.364;2023-04-25T07:15:55;94176.22;;;14.34;100.00
28626;BME280;18905;42.668;23.364;2023-04-25T07:18:22;94159.22;;;13.96;100.00
28626;BME280;18905;42.668;23.364;2023-04-25T07:20:47;94133.59;;;13.74;100.00
28626;BME280;18905;42.668;23.364;2023-04-25T07:23:13;94177.41;;;13.95;100.00
28626;BME280;18905;42.668;23.364;2023-04-25T07:25:39;94225.94;;;14.19;100.00
28626;BME280;18905;42.668;23.364;2023-04-25T07:28:04;94188.63;;;13.94;100.00
28626;BME280;18905;42.668;23.364;2023-04-25T07:30:30;94110.53;;;13.23;100.00
28626;BME280;18905;42.668;23.364;2023-04-25T07:32:56;94263.72;;;14.69;100.00
28626;BME280;18905;42.668;23.364;2023-04-25T07:35:22;94194.84;;;14.58;100.00
28626;BME280;18905;42.668;23.364;2023-04-25T07:37:47;94183.53;;;14.56;100.00
28626;BME280;18905;42.668;23.364;2023-04-25T07:40:13;94113.16;;;14.22;100.00
28626;BME280;18905;42.668;23.364;2023-04-25T07:42:41;94168.00;;;14.53;100.00
28626;BME280;18905;42.668;23.364;2023-04-25T07:45:07;94123.38;;;14.54;100.00
28626;BME280;18905;42.668;23.364;2023-04-25T07:47:32;94225.97;;;15.35;100.00
28626;BME280;18905;42.668;23.364;2023-04-25T07:49:58;94141.28;;;14.33;100.00
28626;BME280;18905;42.668;23.364;2023-04-25T07:52:24;94249.56;;;15.05;100.00
28626;BME280;18905;42.668;23.364;2023-04-25T07:54:49;94230.34;;;15.17;100.00
28626;BME280;18905;42.668;23.364;2023-04-25T07:57:15;94164.72;;;14.93;100.00
28626;BME280;18905;42.668;23.364;2023-04-25T07:59:42;94114.66;;;14.94;100.00
28626;BME280;18905;42.668;23.364;2023-04-25T08:02:08;94238.13;;;15.74;100.00
28626;BME280;18905;42.668;23.364;2023-04-25T08:04:33;94139.91;;;14.94;100.00
28626;BME280;18905;42.668;23.364;2023-04-25T08:06:59;94118.16;;;14.94;100.00
28626;BME280;18905;42.668;23.364;2023-04-25T08:09:25;94237.50;;;16.17;100.00
28626;BME280;18905;42.668;23.364;2023-04-25T08:11:51;94117.31;;;15.82;100.00
28626;BME280;18905;42.668;23.364;2023-04-25T08:14:17;94162.97;;;16.39;100.00
28626;BME280;18905;42.668;23.364;2023-04-25T08:16:42;94135.50;;;16.51;100.00
28626;BME280;18905;42.668;23.364;2023-04-25T08:19:09;94099.41;;;15.45;100.00
28626;BME280;18905;42.668;23.364;2023-04-25T08:21:34;94150.03;;;15.89;100.00
28626;BME280;18905;42.668;23.364;2023-04-25T08:24:00;94226.63;;;16.57;100.00
28626;BME280;18905;42.668;23.364;2023-04-25T08:26:26;94119.75;;;15.58;100.00
28626;BME280;18905;42.668;23.364;2023-04-25T08:28:52;94215.59;;;16.07;100.00
28626;BME280;18905;42.668;23.364;2023-04-25T08:31:17;94123.69;;;15.60;100.00
28626;BME280;18905;42.668;23.364;2023-04-25T08:33:43;94135.72;;;16.36;100.00
28626;BME280;18905;42.668;23.364;2023-04-25T08:36:10;94085.34;;;16.59;100.00
28626;BME280;18905;42.668;23.364;2023-04-25T08:38:36;94092.97;;;16.97;100.00
28626;BME280;18905;42.668;23.364;2023-04-25T08:41:02;94104.63;;;16.94;92.12
28626;BME280;18905;42.668;23.364;2023-04-25T08:43:29;94110.13;;;16.98;93.65
28626;BME280;18905;42.668;23.364;2023-04-25T08:45:59;94122.59;;;17.02;95.44
28626;BME280;18905;42.668;23.364;2023-04-25T08:48:27;94226.44;;;17.30;96.10
28626;BME280;18905;42.668;23.364;2023-04-25T08:50:54;94155.03;;;16.60;100.00
28626;BME280;18905;42.668;23.364;2023-04-25T08:53:26;94107.84;;;16.06;100.00
28626;BME280;18905;42.668;23.364;2023-04-25T08:55:53;94141.28;;;16.06;100.00
28626;BME280;18905;42.668;23.364;2023-04-25T08:58:19;94151.16;;;15.22;100.00
28626;BME280;18905;42.668;23.364;2023-04-25T09:00:46;94228.50;;;15.51;100.00
28626;BME280;18905;42.668;23.364;2023-04-25T09:03:13;94221.81;;;15.45;100.00
28626;BME280;18905;42.668;23.364;2023-04-25T09:05:40;94143.22;;;15.36;100.00
28626;BME280;18905;42.668;23.364;2023-04-25T09:08:06;94124.28;;;14.88;100.00
28626;BME280;18905;42.668;23.364;2023-04-25T09:10:32;94068.56;;;14.75;100.00
28626;BME280;18905;42.668;23.364;2023-04-25T09:13:09;94041.94;;;15.50;100.00
28626;BME280;18905;42.668;23.364;2023-04-25T09:15:50;94095.94;;;16.28;100.00
28626;BME280;18905;42.668;23.364;2023-04-25T09:18:26;94050.44;;;15.85;100.00
28626;BME280;18905;42.668;23.364;2023-04-25T09:20:56;94091.84;;;16.44;100.00
28626;BME280;18905;42.668;23.364;2023-04-25T09:23:22;94108.63;;;17.07;100.00
28626;BME280;18905;42.668;23.364;2023-04-25T09:25:53;94061.66;;;16.70;100.00
28626;BME280;18905;42.668;23.364;2023-04-25T09:28:26;94069.81;;;16.63;100.00
28626;BME280;18905;42.668;23.364;2023-04-25T09:30:56;94184.50;;;16.95;100.00
28626;BME280;18905;42.668;23.364;2023-04-25T09:33:29;94063.59;;;16.19;100.00
28626;BME280;18905;42.668;23.364;2023-04-25T09:36:08;94056.84;;;16.03;100.00
28626;BME280;18905;42.668;23.364;2023-04-25T09:38:41;94150.41;;;16.64;100.00
28626;BME280;18905;42.668;23.364;2023-04-25T09:41:08;94053.88;;;15.78;100.00
28626;BME280;18905;42.668;23.364;2023-04-25T09:43:34;94085.47;;;15.86;100.00
28626;BME280;18905;42.668;23.364;2023-04-25T09:46:00;94117.63;;;16.14;100.00
28626;BME280;18905;42.668;23.364;2023-04-25T09:48:27;94051.53;;;15.77;100.00
28626;BME280;18905;42.668;23.364;2023-04-25T09:51:12;94180.25;;;16.50;100.00
28626;BME280;18905;42.668;23.364;2023-04-25T09:53:45;94130.84;;;16.15;100.00
28626;BME280;18905;42.668;23.364;2023-04-25T09:56:12;94180.53;;;16.85;100.00
28626;BME280;18905;42.668;23.364;2023-04-25T09:58:40;94063.00;;;16.40;100.00
28626;BME280;18905;42.668;23.364;2023-04-25T10:01:07;94069.75;;;16.56;100.00
28626;BME280;18905;42.668;23.364;2023-04-25T10:03:35;94146.75;;;16.97;100.00
28626;BME280;18905;42.668;23.364;2023-04-25T10:06:05;94120.06;;;16.26;100.00
28626;BME280;18905;42.668;23.364;2023-04-25T10:08:34;94139.22;;;16.33;100.00
28626;BME280;18905;42.668;23.364;2023-04-25T10:11:02;94129.56;;;16.02;100.00
28626;BME280;18905;42.668;23.364;2023-04-25T10:13:32;94131.31;;;15.84;100.00
28626;BME280;18905;42.668;23.364;2023-04-25T10:15:59;94023.34;;;14.89;100.00
28626;BME280;18905;42.668;23.364;2023-04-25T10:18:26;94056.16;;;15.03;100.00
28626;BME280;18905;42.668;23.364;2023-04-25T10:21:01;94103.75;;;15.49;100.00
28626;BME280;18905;42.668;23.364;2023-04-25T10:23:30;94163.66;;;15.89;100.00
28626;BME280;18905;42.668;23.364;2023-04-25T10:25:56;94220.69;;;16.12;100.00
28626;BME280;18905;42.668;23.364;2023-04-25T10:28:22;94170.31;;;15.03;100.00
28626;BME280;18905;42.668;23.364;2023-04-25T10:31:06;94051.44;;;14.45;100.00
28626;BME280;18905;42.668;23.364;2023-04-25T10:33:37;94051.59;;;15.14;100.00
28626;BME280;18905;42.668;23.364;2023-04-25T10:36:18;94081.09;;;16.65;90.66
28626;BME280;18905;42.668;23.364;2023-04-25T10:38:45;94087.66;;;17.18;87.87
28626;BME280;18905;42.668;23.364;2023-04-25T10:41:12;94063.44;;;17.10;82.51
28626;BME280;18905;42.668;23.364;2023-04-25T10:46:24;94183.72;;;19.14;100.00
28626;BME280;18905;42.668;23.364;2023-04-25T10:48:59;94117.03;;;16.81;100.00
28626;BME280;18905;42.668;23.364;2023-04-25T10:51:30;94028.56;;;15.34;100.00
28626;BME280;18905;42.668;23.364;2023-04-25T10:54:04;94071.97;;;15.97;100.00
28626;BME280;18905;42.668;23.364;2023-04-25T10:56:39;94028.50;;;15.31;100.00
28626;BME280;18905;42.668;23.364;2023-04-25T10:59:13;94032.06;;;14.72;100.00
28626;BME280;18905;42.668;23.364;2023-04-25T11:01:43;94077.91;;;15.03;100.00
28626;BME280;18905;42.668;23.364;2023-04-25T11:04:20;94055.34;;;15.03;100.00
28626;BME280;18905;42.668;23.364;2023-04-25T11:07:02;94141.81;;;15.20;100.00
28626;BME280;18905;42.668;23.364;2023-04-25T11:09:32;93995.38;;;14.30;100.00
28626;BME280;18905;42.668;23.364;2023-04-25T11:11:59;94049.03;;;15.25;100.00
28626;BME280;18905;42.668;23.364;2023-04-25T11:14:26;94100.25;;;14.93;100.00
28626;BME280;18905;42.668;23.364;2023-04-25T11:16:56;94016.81;;;14.38;100.00
28626;BME280;18905;42.668;23.364;2023-04-25T11:19:23;94030.03;;;14.40;100.00
28626;BME280;18905;42.668;23.364;2023-04-25T11:21:49;94154.09;;;15.69;100.00
28626;BME280;18905;42.668;23.364;2023-04-25T11:24:18;94061.06;;;15.24;100.00
28626;BME280;18905;42.668;23.364;2023-04-25T11:26:46;94075.00;;;15.52;100.00
28626;BME280;18905;42.668;23.364;2023-04-25T11:29:13;94031.78;;;15.14;100.00
28626;BME280;18905;42.668;23.364;2023-04-25T11:31:43;94019.03;;;14.88;100.00
28626;BME280;18905;42.668;23.364;2023-04-25T11:34:09;94052.75;;;14.80;100.00
28626;BME280;18905;42.668;23.364;2023-04-25T11:36:38;94058.34;;;14.94;100.00
28626;BME280;18905;42.668;23.364;2023-04-25T11:39:03;94131.31;;;15.48;100.00
28626;BME280;18905;42.668;23.364;2023-04-25T11:41:30;94079.22;;;15.16;100.00
28626;BME280;18905;42.668;23.364;2023-04-25T11:43:56;94043.91;;;15.20;100.00
28626;BME280;18905;42.668;23.364;2023-04-25T11:46:21;94168.97;;;16.15;100.00
28626;BME280;18905;42.668;23.364;2023-04-25T11:48:47;94169.41;;;15.81;100.00
28626;BME280;18905;42.668;23.364;2023-04-25T11:51:13;94076.28;;;15.32;100.00
28626;BME280;18905;42.668;23.364;2023-04-25T11:53:41;94111.97;;;15.56;100.00
28626;BME280;18905;42.668;23.364;2023-04-25T11:56:11;94079.91;;;14.80;100.00
28626;BME280;18905;42.668;23.364;2023-04-25T11:59:00;94169.00;;;15.20;100.00
28626;BME280;18905;42.668;23.364;2023-04-25T12:01:30;94043.63;;;14.40;100.00
28626;BME280;18905;42.668;23.364;2023-04-25T12:04:09;94166.16;;;15.39;100.00
28626;BME280;18905;42.668;23.364;2023-04-25T12:06:39;94005.22;;;14.41;100.00
28626;BME280;18905;42.668;23.364;2023-04-25T12:09:08;94068.56;;;15.04;100.00
28626;BME280;18905;42.668;23.364;2023-04-25T12:11:45;94025.97;;;15.15;100.00
28626;BME280;18905;42.668;23.364;2023-04-25T12:14:11;94003.66;;;15.32;100.00
28626;BME280;18905;42.668;23.364;2023-04-25T12:16:44;94070.69;;;15.87;100.00
28626;BME280;18905;42.668;23.364;2023-04-25T12:19:13;94091.19;;;16.18;100.00
28626;BME280;18905;42.668;23.364;2023-04-25T12:21:39;94080.66;;;15.73;100.00
28626;BME280;18905;42.668;23.364;2023-04-25T12:24:10;94128.72;;;15.58;100.00
28626;BME280;18905;42.668;23.364;2023-04-25T12:26:53;94089.84;;;15.94;100.00
28626;BME280;18905;42.668;23.364;2023-04-25T12:29:25;94062.31;;;16.06;100.00
28626;BME280;18905;42.668;23.364;2023-04-25T12:31:52;94026.91;;;16.03;100.00
28626;BME280;18905;42.668;23.364;2023-04-25T12:34:19;94018.66;;;16.43;98.75
28626;BME280;18905;42.668;23.364;2023-04-25T12:36:45;94010.88;;;16.45;100.00
28626;BME280;18905;42.668;23.364;2023-04-25T12:39:18;94040.38;;;16.39;100.00
28626;BME280;18905;42.668;23.364;2023-04-25T12:41:45;94134.97;;;15.99;100.00
28626;BME280;18905;42.668;23.364;2023-04-25T12:44:10;94112.63;;;15.46;100.00
28626;BME280;18905;42.668;23.364;2023-04-25T12:46:37;94120.25;;;15.08;100.00
28626;BME280;18905;42.668;23.364;2023-04-25T12:49:03;94108.88;;;14.43;100.00